Friday, January 18, 2019, 2:37 AM EST
Back to Local

KACK, Nantucket Memorial Airport

Location: Nantucket, MA, United States Lat: 41.25
Local Time: 2:37 AM EST ( 7:37 GMT) Lon: -70.067
Time Zone: US/Eastern Elev: 49 ft

Show me the last for .
Show Coded

Time T Td Feel RH Dir Speed Gust Alt SLP Vis Weather Sky Remarks
2019-01-18 01:53 33 21 23 60 120° 15 - 30.25 30.25 10 SCT030 BKN120 None
2019-01-18 00:53 32 21 24 63 130° 9 - 30.26 30.26 10 SCT030 OVC110 6-hr Min Temp (1am): 25.0°F
6-hr Max Temp (1am): 33.1°F
2019-01-17 23:53 31 20 23 63 120° 8 - 30.29 30.29 10 OVC120 24-hr Min Temp (12am): 23.0°F
24-hr Max Temp (12am): 34.0°F
2019-01-17 22:53 28 19 23 68 60° 5 - 30.32 30.32 10 SCT120 None
2019-01-17 21:53 27 17 20 65 90° 6 - 30.33 30.32 10 CLR None
2019-01-17 20:53 26 16 22 65 60° 3 - 30.34 30.33 10 CLR None
2019-01-17 19:53 27 16 - 62 - Calm - 30.35 30.35 10 OVC110 None
2019-01-17 18:53 25 15 19 65 50° 5 - 30.35 30.35 10 SCT110 6-hr Min Temp (7pm): 23.0°F
6-hr Max Temp (7pm): 28.9°F
2019-01-17 17:53 24 12 20 59 40° 3 - 30.35 30.35 10 CLR None
2019-01-17 16:53 25 12 19 57 20° 5 - 30.35 30.35 10 CLR None
2019-01-17 15:53 26 12 19 54 10° 6 - 30.35 30.35 10 CLR None
2019-01-17 14:53 28 10 20 46 350° 8 - 30.35 30.35 10 CLR None
2019-01-17 13:53 29 10 19 44 360° 12 - 30.35 30.35 10 CLR None
2019-01-17 12:53 28 11 17 48 10° 13 - 30.35 30.35 10 CLR 6-hr Min Temp (1pm): 26.1°F
6-hr Max Temp (1pm): 28.9°F
2019-01-17 11:53 29 10 18 44 10° 15 - 30.37 30.37 10 CLR None
2019-01-17 10:53 28 10 16 46 350° 16 - 30.38 30.38 10 CLR None
2019-01-17 09:53 27 9 12 45 350° 14 24 30.38 30.38 10 CLR None
2019-01-17 08:53 27 9 12 45 350° 17 26 30.35 30.35 10 CLR None
2019-01-17 07:53 26 11 13 52 350° 18 - 30.33 30.33 10 CLR None
2019-01-17 06:53 26 13 13 56 340° 18 - 30.30 30.29 10 CLR 6-hr Min Temp (7am): 26.1°F
6-hr Max Temp (7am): 33.1°F
2019-01-17 05:53 28 14 15 55 340° 18 - 30.27 30.27 10 CLR None
2019-01-17 04:53 29 15 18 55 340° 15 - 30.24 30.24 10 CLR None
2019-01-17 03:53 30 15 16 53 320° 16 24 30.22 30.21 10 CLR None
2019-01-17 02:53 31 15 20 51 310° 15 - 30.20 30.20 10 CLR None

Support USWX by starting your Amazon purchase here.